sensor_id;sensor_type;location;lat;lon;timestamp;P1;durP1;ratioP1;P2;durP2;ratioP2
44706;SDS011;30433;45.596;8.408;2023-12-29T00:06:49;14.50;;;10.30;;
44706;SDS011;30433;45.596;8.408;2023-12-29T00:40:41;12.45;;;10.55;;
44706;SDS011;30433;45.596;8.408;2023-12-29T00:46:44;13.65;;;10.65;;
44706;SDS011;30433;45.596;8.408;2023-12-29T00:52:46;14.32;;;10.55;;
44706;SDS011;30433;45.596;8.408;2023-12-29T00:58:49;12.52;;;9.75;;
44706;SDS011;30433;45.596;8.408;2023-12-29T01:10:53;14.60;;;10.75;;
44706;SDS011;30433;45.596;8.408;2023-12-29T01:16:57;12.70;;;9.15;;
44706;SDS011;30433;45.596;8.408;2023-12-29T01:50:12;13.52;;;9.27;;
44706;SDS011;30433;45.596;8.408;2023-12-29T01:56:14;11.75;;;8.98;;
44706;SDS011;30433;45.596;8.408;2023-12-29T02:02:16;12.07;;;9.98;;
44706;SDS011;30433;45.596;8.408;2023-12-29T02:08:20;17.43;;;12.23;;
44706;SDS011;30433;45.596;8.408;2023-12-29T02:14:23;13.43;;;9.27;;
44706;SDS011;30433;45.596;8.408;2023-12-29T02:20:25;11.43;;;8.48;;
44706;SDS011;30433;45.596;8.408;2023-12-29T02:26:29;11.73;;;7.75;;
44706;SDS011;30433;45.596;8.408;2023-12-29T02:32:36;11.90;;;8.52;;
44706;SDS011;30433;45.596;8.408;2023-12-29T02:38:40;12.05;;;8.82;;
44706;SDS011;30433;45.596;8.408;2023-12-29T02:44:44;14.23;;;8.93;;
44706;SDS011;30433;45.596;8.408;2023-12-29T02:56:48;12.98;;;9.07;;
44706;SDS011;30433;45.596;8.408;2023-12-29T03:02:52;9.98;;;8.23;;
44706;SDS011;30433;45.596;8.408;2023-12-29T03:08:55;11.98;;;8.18;;
44706;SDS011;30433;45.596;8.408;2023-12-29T03:14:57;10.40;;;7.47;;
44706;SDS011;30433;45.596;8.408;2023-12-29T03:21:00;8.68;;;6.75;;
44706;SDS011;30433;45.596;8.408;2023-12-29T03:27:03;9.02;;;6.60;;
44706;SDS011;30433;45.596;8.408;2023-12-29T03:33:05;11.13;;;6.78;;
44706;SDS011;30433;45.596;8.408;2023-12-29T03:39:09;6.40;;;5.35;;
44706;SDS011;30433;45.596;8.408;2023-12-29T03:51:13;7.93;;;4.95;;
44706;SDS011;30433;45.596;8.408;2023-12-29T03:57:17;7.60;;;5.20;;
44706;SDS011;30433;45.596;8.408;2023-12-29T04:09:20;7.32;;;4.07;;
44706;SDS011;30433;45.596;8.408;2023-12-29T04:15:24;5.88;;;4.35;;
44706;SDS011;30433;45.596;8.408;2023-12-29T04:27:28;5.43;;;3.03;;
44706;SDS011;30433;45.596;8.408;2023-12-29T04:40:29;3.15;;;2.38;;
44706;SDS011;30433;45.596;8.408;2023-12-29T04:52:33;4.53;;;2.72;;
44706;SDS011;30433;45.596;8.408;2023-12-29T04:58:37;4.40;;;3.28;;
44706;SDS011;30433;45.596;8.408;2023-12-29T05:04:39;5.40;;;3.47;;
44706;SDS011;30433;45.596;8.408;2023-12-29T05:10:41;6.03;;;4.18;;
44706;SDS011;30433;45.596;8.408;2023-12-29T05:16:44;6.00;;;4.10;;
44706;SDS011;30433;45.596;8.408;2023-12-29T05:28:48;5.13;;;3.00;;
44706;SDS011;30433;45.596;8.408;2023-12-29T05:34:52;3.92;;;2.90;;
44706;SDS011;30433;45.596;8.408;2023-12-29T05:46:56;4.93;;;2.50;;
44706;SDS011;30433;45.596;8.408;2023-12-29T05:52:59;3.78;;;2.10;;
44706;SDS011;30433;45.596;8.408;2023-12-29T05:59:02;5.57;;;2.50;;
44706;SDS011;30433;45.596;8.408;2023-12-29T06:05:04;3.88;;;2.50;;
44706;SDS011;30433;45.596;8.408;2023-12-29T06:11:08;8.30;;;3.43;;
44706;SDS011;30433;45.596;8.408;2023-12-29T06:17:15;3.70;;;2.38;;
44706;SDS011;30433;45.596;8.408;2023-12-29T06:23:17;3.60;;;2.10;;
44706;SDS011;30433;45.596;8.408;2023-12-29T06:29:22;4.05;;;2.30;;
44706;SDS011;30433;45.596;8.408;2023-12-29T06:35:24;4.85;;;2.78;;
44706;SDS011;30433;45.596;8.408;2023-12-29T06:41:26;2.65;;;1.90;;
44706;SDS011;30433;45.596;8.408;2023-12-29T06:47:29;4.15;;;2.38;;
44706;SDS011;30433;45.596;8.408;2023-12-29T06:59:33;4.15;;;1.98;;
44706;SDS011;30433;45.596;8.408;2023-12-29T07:05:37;3.30;;;1.85;;
44706;SDS011;30433;45.596;8.408;2023-12-29T07:11:39;3.65;;;2.47;;
44706;SDS011;30433;45.596;8.408;2023-12-29T07:17:41;3.85;;;2.05;;
44706;SDS011;30433;45.596;8.408;2023-12-29T07:23:45;3.75;;;1.92;;
44706;SDS011;30433;45.596;8.408;2023-12-29T07:29:47;5.15;;;2.15;;
44706;SDS011;30433;45.596;8.408;2023-12-29T07:35:50;2.78;;;1.90;;
44706;SDS011;30433;45.596;8.408;2023-12-29T07:41:53;3.67;;;2.13;;
44706;SDS011;30433;45.596;8.408;2023-12-29T07:47:55;3.70;;;2.33;;
44706;SDS011;30433;45.596;8.408;2023-12-29T07:53:58;3.25;;;2.42;;
44706;SDS011;30433;45.596;8.408;2023-12-29T08:00:02;6.30;;;2.45;;
44706;SDS011;30433;45.596;8.408;2023-12-29T08:06:06;6.25;;;2.42;;
44706;SDS011;30433;45.596;8.408;2023-12-29T08:12:08;7.63;;;2.67;;
44706;SDS011;30433;45.596;8.408;2023-12-29T08:18:12;5.35;;;1.90;;
44706;SDS011;30433;45.596;8.408;2023-12-29T08:30:17;3.72;;;2.10;;
44706;SDS011;30433;45.596;8.408;2023-12-29T08:36:20;3.80;;;2.53;;
44706;SDS011;30433;45.596;8.408;2023-12-29T08:42:23;21.27;;;13.15;;
44706;SDS011;30433;45.596;8.408;2023-12-29T08:48:25;14.02;;;7.32;;
44706;SDS011;30433;45.596;8.408;2023-12-29T08:54:28;11.10;;;7.10;;
44706;SDS011;30433;45.596;8.408;2023-12-29T09:00:30;7.05;;;4.63;;
44706;SDS011;30433;45.596;8.408;2023-12-29T09:06:33;6.57;;;4.63;;
44706;SDS011;30433;45.596;8.408;2023-12-29T09:12:36;9.05;;;4.47;;
44706;SDS011;30433;45.596;8.408;2023-12-29T09:18:38;6.43;;;4.57;;
44706;SDS011;30433;45.596;8.408;2023-12-29T09:24:41;5.47;;;3.38;;
44706;SDS011;30433;45.596;8.408;2023-12-29T09:30:45;5.20;;;3.43;;
44706;SDS011;30433;45.596;8.408;2023-12-29T09:42:49;5.32;;;4.10;;
44706;SDS011;30433;45.596;8.408;2023-12-29T09:48:52;6.90;;;3.97;;
44706;SDS011;30433;45.596;8.408;2023-12-29T09:54:59;9.80;;;5.63;;
44706;SDS011;30433;45.596;8.408;2023-12-29T10:01:02;12.00;;;4.27;;
44706;SDS011;30433;45.596;8.408;2023-12-29T10:07:08;9.35;;;4.30;;
44706;SDS011;30433;45.596;8.408;2023-12-29T10:13:14;5.85;;;4.32;;
44706;SDS011;30433;45.596;8.408;2023-12-29T10:19:20;5.47;;;3.60;;
44706;SDS011;30433;45.596;8.408;2023-12-29T10:25:30;8.10;;;4.47;;
44706;SDS011;30433;45.596;8.408;2023-12-29T10:31:32;10.15;;;5.32;;
44706;SDS011;30433;45.596;8.408;2023-12-29T10:37:35;22.27;;;10.55;;
44706;SDS011;30433;45.596;8.408;2023-12-29T10:50:43;9.35;;;5.60;;
44706;SDS011;30433;45.596;8.408;2023-12-29T10:56:46;7.57;;;5.20;;
44706;SDS011;30433;45.596;8.408;2023-12-29T11:02:53;9.52;;;4.97;;
44706;SDS011;30433;45.596;8.408;2023-12-29T11:08:57;13.70;;;6.75;;
44706;SDS011;30433;45.596;8.408;2023-12-29T11:14:59;20.60;;;9.35;;
44706;SDS011;30433;45.596;8.408;2023-12-29T11:21:03;9.63;;;5.10;;
44706;SDS011;30433;45.596;8.408;2023-12-29T11:27:08;8.13;;;4.78;;
44706;SDS011;30433;45.596;8.408;2023-12-29T11:33:14;7.80;;;4.65;;
44706;SDS011;30433;45.596;8.408;2023-12-29T11:39:20;10.13;;;4.70;;
44706;SDS011;30433;45.596;8.408;2023-12-29T11:45:31;8.95;;;4.35;;
44706;SDS011;30433;45.596;8.408;2023-12-29T11:51:37;8.25;;;4.07;;
44706;SDS011;30433;45.596;8.408;2023-12-29T11:57:43;7.95;;;3.97;;
44706;SDS011;30433;45.596;8.408;2023-12-29T12:03:46;5.55;;;3.92;;
44706;SDS011;30433;45.596;8.408;2023-12-29T12:09:50;7.45;;;4.28;;
44706;SDS011;30433;45.596;8.408;2023-12-29T12:15:54;8.57;;;4.68;;
44706;SDS011;30433;45.596;8.408;2023-12-29T12:21:57;8.35;;;4.55;;
44706;SDS011;30433;45.596;8.408;2023-12-29T12:28:01;7.13;;;3.90;;
44706;SDS011;30433;45.596;8.408;2023-12-29T12:34:07;6.78;;;4.28;;
44706;SDS011;30433;45.596;8.408;2023-12-29T12:40:11;9.73;;;4.75;;
44706;SDS011;30433;45.596;8.408;2023-12-29T12:46:26;7.35;;;4.82;;
44706;SDS011;30433;45.596;8.408;2023-12-29T12:52:31;7.18;;;4.88;;
44706;SDS011;30433;45.596;8.408;2023-12-29T12:58:36;6.32;;;4.50;;
44706;SDS011;30433;45.596;8.408;2023-12-29T13:04:39;6.40;;;4.80;;
44706;SDS011;30433;45.596;8.408;2023-12-29T13:10:42;7.75;;;5.30;;
44706;SDS011;30433;45.596;8.408;2023-12-29T13:16:46;6.23;;;4.93;;
44706;SDS011;30433;45.596;8.408;2023-12-29T13:22:48;6.80;;;4.88;;
44706;SDS011;30433;45.596;8.408;2023-12-29T13:28:51;8.93;;;5.35;;
44706;SDS011;30433;45.596;8.408;2023-12-29T13:34:56;9.25;;;5.38;;
44706;SDS011;30433;45.596;8.408;2023-12-29T13:41:07;11.27;;;6.00;;
44706;SDS011;30433;45.596;8.408;2023-12-29T13:47:12;17.75;;;9.90;;
44706;SDS011;30433;45.596;8.408;2023-12-29T13:53:18;20.20;;;12.07;;
44706;SDS011;30433;45.596;8.408;2023-12-29T13:59:28;15.75;;;9.20;;
44706;SDS011;30433;45.596;8.408;2023-12-29T14:05:34;14.23;;;10.05;;
44706;SDS011;30433;45.596;8.408;2023-12-29T14:11:40;14.98;;;7.00;;
44706;SDS011;30433;45.596;8.408;2023-12-29T14:17:46;14.88;;;8.30;;
44706;SDS011;30433;45.596;8.408;2023-12-29T14:30:46;13.93;;;7.72;;
44706;SDS011;30433;45.596;8.408;2023-12-29T14:36:48;17.80;;;7.43;;
44706;SDS011;30433;45.596;8.408;2023-12-29T14:42:50;8.05;;;5.60;;
44706;SDS011;30433;45.596;8.408;2023-12-29T14:48:54;8.05;;;4.53;;
44706;SDS011;30433;45.596;8.408;2023-12-29T14:54:57;16.73;;;14.85;;
44706;SDS011;30433;45.596;8.408;2023-12-29T15:00:59;10.95;;;7.38;;
44706;SDS011;30433;45.596;8.408;2023-12-29T15:07:03;7.85;;;6.25;;
44706;SDS011;30433;45.596;8.408;2023-12-29T15:13:06;7.55;;;5.10;;
44706;SDS011;30433;45.596;8.408;2023-12-29T15:19:08;6.95;;;5.28;;
44706;SDS011;30433;45.596;8.408;2023-12-29T15:25:11;15.70;;;8.98;;
44706;SDS011;30433;45.596;8.408;2023-12-29T15:31:13;12.73;;;7.28;;
44706;SDS011;30433;45.596;8.408;2023-12-29T15:37:16;5.28;;;3.97;;
44706;SDS011;30433;45.596;8.408;2023-12-29T15:55:26;6.20;;;4.20;;
44706;SDS011;30433;45.596;8.408;2023-12-29T16:01:29;6.95;;;4.22;;
44706;SDS011;30433;45.596;8.408;2023-12-29T16:07:32;6.15;;;4.32;;
44706;SDS011;30433;45.596;8.408;2023-12-29T16:20:33;5.40;;;4.25;;
44706;SDS011;30433;45.596;8.408;2023-12-29T16:26:35;6.10;;;4.65;;
44706;SDS011;30433;45.596;8.408;2023-12-29T16:32:38;5.90;;;4.50;;
44706;SDS011;30433;45.596;8.408;2023-12-29T16:38:47;6.72;;;4.65;;
44706;SDS011;30433;45.596;8.408;2023-12-29T16:44:50;5.75;;;4.55;;
44706;SDS011;30433;45.596;8.408;2023-12-29T16:50:52;7.60;;;5.57;;
44706;SDS011;30433;45.596;8.408;2023-12-29T16:56:56;13.45;;;8.07;;
44706;SDS011;30433;45.596;8.408;2023-12-29T17:02:58;11.55;;;7.50;;
44706;SDS011;30433;45.596;8.408;2023-12-29T17:09:00;29.10;;;16.05;;
44706;SDS011;30433;45.596;8.408;2023-12-29T17:15:05;23.60;;;12.85;;
44706;SDS011;30433;45.596;8.408;2023-12-29T17:21:08;20.85;;;13.18;;
44706;SDS011;30433;45.596;8.408;2023-12-29T17:40:12;28.33;;;15.70;;
44706;SDS011;30433;45.596;8.408;2023-12-29T17:46:15;27.92;;;18.02;;
44706;SDS011;30433;45.596;8.408;2023-12-29T17:52:17;15.02;;;9.32;;
44706;SDS011;30433;45.596;8.408;2023-12-29T17:58:20;13.25;;;8.80;;
44706;SDS011;30433;45.596;8.408;2023-12-29T18:04:23;11.80;;;7.85;;
44706;SDS011;30433;45.596;8.408;2023-12-29T18:10:25;12.05;;;7.40;;
44706;SDS011;30433;45.596;8.408;2023-12-29T18:16:28;12.90;;;8.63;;
44706;SDS011;30433;45.596;8.408;2023-12-29T18:22:32;8.93;;;6.45;;
44706;SDS011;30433;45.596;8.408;2023-12-29T18:28:35;8.43;;;6.38;;
44706;SDS011;30433;45.596;8.408;2023-12-29T18:34:41;8.32;;;6.10;;
44706;SDS011;30433;45.596;8.408;2023-12-29T18:46:45;10.60;;;6.20;;
44706;SDS011;30433;45.596;8.408;2023-12-29T18:52:48;8.10;;;5.45;;
44706;SDS011;30433;45.596;8.408;2023-12-29T18:58:51;9.13;;;5.47;;
44706;SDS011;30433;45.596;8.408;2023-12-29T19:04:53;9.43;;;5.85;;
44706;SDS011;30433;45.596;8.408;2023-12-29T19:10:56;8.73;;;6.20;;
44706;SDS011;30433;45.596;8.408;2023-12-29T19:43:53;12.57;;;8.02;;
44706;SDS011;30433;45.596;8.408;2023-12-29T19:49:55;27.20;;;18.92;;
44706;SDS011;30433;45.596;8.408;2023-12-29T19:55:58;24.30;;;19.83;;
44706;SDS011;30433;45.596;8.408;2023-12-29T20:02:01;29.25;;;19.98;;
44706;SDS011;30433;45.596;8.408;2023-12-29T20:08:04;19.75;;;14.27;;
44706;SDS011;30433;45.596;8.408;2023-12-29T20:20:13;19.70;;;12.10;;
44706;SDS011;30433;45.596;8.408;2023-12-29T20:26:17;18.92;;;13.00;;
44706;SDS011;30433;45.596;8.408;2023-12-29T20:32:21;19.40;;;11.80;;
44706;SDS011;30433;45.596;8.408;2023-12-29T20:38:26;17.58;;;11.85;;
44706;SDS011;30433;45.596;8.408;2023-12-29T20:44:28;16.35;;;11.57;;
44706;SDS011;30433;45.596;8.408;2023-12-29T20:50:30;15.18;;;11.57;;
44706;SDS011;30433;45.596;8.408;2023-12-29T20:56:34;17.83;;;12.50;;
44706;SDS011;30433;45.596;8.408;2023-12-29T21:02:37;19.83;;;11.57;;
44706;SDS011;30433;45.596;8.408;2023-12-29T21:08:40;16.27;;;11.90;;
44706;SDS011;30433;45.596;8.408;2023-12-29T21:14:44;15.73;;;11.63;;
44706;SDS011;30433;45.596;8.408;2023-12-29T21:20:47;15.80;;;11.32;;
44706;SDS011;30433;45.596;8.408;2023-12-29T21:26:51;16.70;;;11.35;;
44706;SDS011;30433;45.596;8.408;2023-12-29T21:39:52;19.67;;;12.93;;
44706;SDS011;30433;45.596;8.408;2023-12-29T21:45:55;16.35;;;11.95;;
44706;SDS011;30433;45.596;8.408;2023-12-29T21:51:57;19.80;;;13.13;;
44706;SDS011;30433;45.596;8.408;2023-12-29T21:58:01;18.23;;;13.00;;
44706;SDS011;30433;45.596;8.408;2023-12-29T22:04:04;18.55;;;13.15;;
44706;SDS011;30433;45.596;8.408;2023-12-29T22:10:08;18.95;;;13.55;;
44706;SDS011;30433;45.596;8.408;2023-12-29T22:16:13;18.63;;;13.50;;
44706;SDS011;30433;45.596;8.408;2023-12-29T22:22:15;23.50;;;14.18;;
44706;SDS011;30433;45.596;8.408;2023-12-29T22:28:17;16.85;;;12.55;;
44706;SDS011;30433;45.596;8.408;2023-12-29T22:34:21;15.65;;;12.07;;
44706;SDS011;30433;45.596;8.408;2023-12-29T22:40:24;18.42;;;12.30;;
44706;SDS011;30433;45.596;8.408;2023-12-29T22:46:26;16.63;;;12.18;;
44706;SDS011;30433;45.596;8.408;2023-12-29T22:52:29;106.95;;;59.03;;
44706;SDS011;30433;45.596;8.408;2023-12-29T23:04:33;25.52;;;16.52;;
44706;SDS011;30433;45.596;8.408;2023-12-29T23:10:37;28.17;;;17.17;;
44706;SDS011;30433;45.596;8.408;2023-12-29T23:22:41;31.98;;;19.63;;
44706;SDS011;30433;45.596;8.408;2023-12-29T23:28:45;32.80;;;21.52;;
44706;SDS011;30433;45.596;8.408;2023-12-29T23:34:47;32.78;;;20.25;;
44706;SDS011;30433;45.596;8.408;2023-12-29T23:40:49;28.02;;;19.35;;
44706;SDS011;30433;45.596;8.408;2023-12-29T23:46:53;24.55;;;17.40;;
44706;SDS011;30433;45.596;8.408;2023-12-29T23:58:59;24.25;;;16.08;;
